Wolseley, Canada
Current Conditions -  °F | °C
As of 2:00 PM on Sunday 25 Jan 2015 (Local Time) from CYQR Reporting Station
Overcast Overcast  
Wind Chill: 24°   Ceiling: 9100
Heat Index: 34°   Visibility: 15mi
Dew Point: 32°   Wind: 14mph
Humidity: 93%   Direction: 150°SSE
Pressure: 29.77"   Gusts: NA
Location:  50.42°N, 103.27°W
Report Text: CYQR 252000Z 15012KT 15SM BKN091 BKN160 OVC260 01/00 A2977 RMK AC5AC2CI1 SLP113
Loading
Personal Weather Stations






























Interactive Weather Map New forecast layout! Learn more

10-Day Weather Forecast

Advertisements
Track Severe Weather on mobile